Pagrindinis puslapis
METAR-TAF:

METAR-TAF

Oro uostai :

Evenes, Norvegija

platuma: 68-31N, ilguma: 016-41E, Aukštis: 26 m

Dabartinis oras

Ataskaita buvo paskelbta 16 minutes, ne 02:50 UTC
Vėjas 8 kt iš Šiaurės
Temperatūra 10°C
Drėgmė 82%
Slėgis 1021 hPa
Matomumas 10 km arba daugiau

METAR: ENEV 240250Z AUTO 35008KT 9999 OVC027/// 10/07 Q1021 RMK WIND 1400FT 36012KT

Laikas: 05:06 (03:06 UTC)

Prognozė

Ataskaita buvo paskelbta 1 valandą ir 6 minutes, ne 02:00 UTC
Prognozė galioja nuo 24 metu 03 UTC su 24 metu 12 UTC
Vėjas 8 kt iš Šiaurės
Matomumas 10 km arba daugiau
Mažai debesys ne aukštis 1500 ft
Su prošvaistėmis ne aukštis 2500 ft

TAF: ENEV 240200Z 2403/2412 35008KT 9999 FEW015 BKN025

Orai ataskaitas ir orų prognozės (METAR, TAF).

turimą stotys yra geltonos ir raudonos taškus žemėlapyje.

Perkelti pele per norėdami pamatyti stoties vardą.

Tada spustelėkite, norėdami matyti oro stebėjimo ir prognozės.

Norėdami pakeisti žemėlapį: spustelėkite ant žalios mygtukų su juodo kryžiaus žemyn,; žalią mygtuką su brūkšneliu, jei norite nutolinti; arba žalių rodyklių gretimoms žemėlapius.


METAR-TAF: